Map

Track Data

SID SEASON NUMBER BASIN SUBBASIN NAME ISO_TIME NATURE LAT LON WMO_WIND WMO_PRES WMO_AGENCY TRACK_TYPE DIST2LAND LANDFALL IFLAG USA_AGENCY USA_ATCF_ID USA_LAT USA_LON USA_RECORD USA_STATUS USA_WIND USA_PRES USA_SSHS USA_R34_NE USA_R34_SE USA_R34_SW USA_R34_NW USA_R50_NE USA_R50_SE USA_R50_SW USA_R50_NW USA_R64_NE USA_R64_SE USA_R64_SW USA_R64_NW USA_POCI USA_ROCI USA_RMW USA_EYE TOKYO_LAT TOKYO_LON TOKYO_GRADE TOKYO_WIND TOKYO_PRES TOKYO_R50_DIR TOKYO_R50_LONG TOKYO_R50_SHORT TOKYO_R30_DIR TOKYO_R30_LONG TOKYO_R30_SHORT TOKYO_LAND CMA_LAT CMA_LON CMA_CAT CMA_WIND CMA_PRES HKO_LAT HKO_LON HKO_CAT HKO_WIND HKO_PRES NEWDELHI_LAT NEWDELHI_LON NEWDELHI_GRADE NEWDELHI_WIND NEWDELHI_PRES NEWDELHI_CI NEWDELHI_DP NEWDELHI_POCI REUNION_LAT REUNION_LON REUNION_TYPE REUNION_WIND REUNION_PRES REUNION_TNUM REUNION_CI REUNION_RMW REUNION_R34_NE REUNION_R34_SE REUNION_R34_SW REUNION_R34_NW REUNION_R50_NE REUNION_R50_SE REUNION_R50_SW REUNION_R50_NW REUNION_R64_NE REUNION_R64_SE REUNION_R64_SW REUNION_R64_NW BOM_LAT BOM_LON BOM_TYPE BOM_WIND BOM_PRES BOM_TNUM BOM_CI BOM_RMW BOM_R34_NE BOM_R34_SE BOM_R34_SW BOM_R34_NW BOM_R50_NE BOM_R50_SE BOM_R50_SW BOM_R50_NW BOM_R64_NE BOM_R64_SE BOM_R64_SW BOM_R64_NW BOM_ROCI BOM_POCI BOM_EYE BOM_POS_METHOD BOM_PRES_METHOD NADI_LAT NADI_LON NADI_CAT NADI_WIND NADI_PRES WELLINGTON_LAT WELLINGTON_LON WELLINGTON_WIND WELLINGTON_PRES DS824_LAT DS824_LON DS824_STAGE DS824_WIND DS824_PRES TD9636_LAT TD9636_LON TD9636_STAGE TD9636_WIND TD9636_PRES TD9635_LAT TD9635_LON TD9635_WIND TD9635_PRES TD9635_ROCI NEUMANN_LAT NEUMANN_LON NEUMANN_CLASS NEUMANN_WIND NEUMANN_PRES MLC_LAT MLC_LON MLC_CLASS MLC_WIND MLC_PRES USA_GUST BOM_GUST BOM_GUST_PER REUNION_GUST REUNION_GUST_PER USA_SEAHGT USA_SEARAD_NE USA_SEARAD_SE USA_SEARAD_SW USA_SEARAD_NW STORM_SPEED STORM_DIR
1881277N17085 1881 42 NI BB NOT_NAMED 1881-10-04 00:00:00 TS 17.3000 84.6000 main 123 109 _________O____ -1 17.3000 84.6000 TC 30 2 311
1881277N17085 1881 42 NI BB NOT_NAMED 1881-10-04 03:00:00 TS 17.3583 84.5333 main 109 94 _________PO___ -1 17.3875 84.5000 TC 30 17.3000 84.6000 1 2 318
1881277N17085 1881 42 NI BB NOT_NAMED 1881-10-04 06:00:00 TS 17.4725 84.4413 main 94 84 _________OP___ -1 17.5000 84.4000 TC 30 17.4313 84.5032 1 3 324
1881277N17085 1881 42 NI BB NOT_NAMED 1881-10-04 09:00:00 TS 17.6114 84.3451 main 79 70 _________PP___ -1 17.6500 84.3000 TC 30 17.5600 84.4051 1 3 326
1881277N17085 1881 42 NI BB NOT_NAMED 1881-10-04 12:00:00 TS 17.7419 84.2522 main 70 54 _________OP___ -1 17.8000 84.2000 TC 30 17.6838 84.3044 1 3 322
1881277N17085 1881 42 NI BB NOT_NAMED 1881-10-04 15:00:00 TS 17.8500 84.1500 main 39 39 _________PO___ -1 17.9000 84.1000 TC 30 17.8000 84.2000 1 3 317
1881277N17085 1881 42 NI BB NOT_NAMED 1881-10-04 18:00:00 TS 17.9544 84.0459 main 24 11 _________OP___ -1 18.0000 84.0000 TC 30 17.9088 84.0918 1 3 319
1881277N17085 1881 42 NI BB NOT_NAMED 1881-10-04 21:00:00 TS 18.0775 83.9425 main 11 0 _________PP___ -1 18.1350 83.9000 TC 30 18.0200 83.9849 1 3 324
1881277N17085 1881 42 NI BB NOT_NAMED 1881-10-05 00:00:00 TS 18.2231 83.8428 main 0 0 _________OP___ -1 18.3000 83.8000 TC 30 18.1463 83.8856 1 4 329
1881277N17085 1881 42 NI BB NOT_NAMED 1881-10-05 03:00:00 TS 18.3925 83.7425 main 0 0 _________PO___ -1 18.4850 83.6850 TC 30 18.3000 83.8000 1 4 336
1881277N17085 1881 42 NI BB NOT_NAMED 1881-10-05 06:00:00 TS 18.6042 83.6638 main 0 0 _________OP___ -1 18.7000 83.6000 TC 30 18.5084 83.7275 1 5 346
1881277N17085 1881 42 NI BB NOT_NAMED 1881-10-05 09:00:00 TS 18.8500 83.6275 main 0 0 _________PP___ -1 18.9575 83.5849 TC 30 18.7425 83.6701 1 5 355
1881277N17085 1881 42 NI BB NOT_NAMED 1881-10-05 12:00:00 TS 19.0902 83.6138 main 0 0 _________OP___ -1 19.2000 83.6000 TC 30 18.9803 83.6275 1 4 356
1881277N17085 1881 42 NI BB NOT_NAMED 1881-10-05 15:00:00 TS 19.2825 83.6000 main 0 0 _________PO___ -1 19.3650 83.6000 TC 30 19.2000 83.6000 1 3 0
1881277N17085 1881 42 NI BB NOT_NAMED 1881-10-05 18:00:00 TS 19.4195 83.5847 main 0 0 _________OP___ -1 19.5000 83.6000 TC 30 19.3390 83.5695 1 3 350
1881277N17085 1881 42 NI BB NOT_NAMED 1881-10-05 21:00:00 TS 19.5412 83.5702 main 0 0 _________PP___ -1 19.6200 83.5851 TC 30 19.4625 83.5552 1 3 0
1881277N17085 1881 42 NI BB NOT_NAMED 1881-10-06 00:00:00 TS 19.7023 83.5817 main 0 0 _________OP___ -1 19.8000 83.6000 TC 30 19.6047 83.5634 1 4 9
1881277N17085 1881 42 NI BB NOT_NAMED 1881-10-06 03:00:00 TS 19.9600 83.6425 main 0 0 _________PO___ -1 20.1200 83.6849 TC 30 19.8000 83.6000 1 6 14
1881277N17085 1881 42 NI BB NOT_NAMED 1881-10-06 06:00:00 TS 20.2983 83.7375 main 0 0 _________OP___ -1 20.5000 83.8000 TC 30 20.0966 83.6750 1 7 15
1881277N17085 1881 42 NI BB NOT_NAMED 1881-10-06 09:00:00 TS 20.6450 83.8386 main 0 0 _________PP___ -1 20.8425 83.9001 TC 30 20.4476 83.7771 1 7 15
1881277N17085 1881 42 NI BB NOT_NAMED 1881-10-06 12:00:00 TS 21.0124 83.9453 main 0 0 _________OP___ -1 21.2000 84.0000 TC 30 20.8248 83.8907 1 8 15
1881277N17085 1881 42 NI BB NOT_NAMED 1881-10-06 15:00:00 TS 21.4075 84.0537 main 0 0 _________PO___ -1 21.6150 84.1074 TC 30 21.2000 84.0000 1 8 14
1881277N17085 1881 42 NI BB NOT_NAMED 1881-10-06 18:00:00 TS 21.7925 84.1471 main 0 0 _________OP___ -1 22.0000 84.2000 TC 30 21.5850 84.0943 1 7 12
1881277N17085 1881 42 NI BB NOT_NAMED 1881-10-06 21:00:00 TS 22.1325 84.2225 main 0 0 _________PP___ -1 22.3100 84.2650 TC 30 21.9550 84.1799 1 6 11
1881277N17085 1881 42 NI BB NOT_NAMED 1881-10-07 00:00:00 TS 22.3862 84.2753 main 0 0 _________OP___ -1 22.5000 84.3000 TC 30 22.2725 84.2505 1 4 11
1881277N17085 1881 42 NI BB NOT_NAMED 1881-10-07 03:00:00 TS 22.5187 84.3038 main 0 0 _________PO___ -1 22.5375 84.3075 TC 30 22.5000 84.3000 1 2 10
1881277N17085 1881 42 NI BB NOT_NAMED 1881-10-07 06:00:00 TS 22.5467 84.3109 main 0 0 _________OP___ -1 22.5000 84.3000 TC 30 22.5934 84.3218 1 0 41
1881277N17085 1881 42 NI BB NOT_NAMED 1881-10-07 09:00:00 TS 22.5487 84.3114 main 0 0 _________PP___ -1 22.5000 84.3000 TC 30 22.5975 84.3227 1 0 0
1881277N17085 1881 42 NI BB NOT_NAMED 1881-10-07 12:00:00 TS 22.5264 84.3062 main 0 0 _________OP___ -1 22.5000 84.3000 TC 30 22.5528 84.3123 1 1 209
1881277N17085 1881 42 NI BB NOT_NAMED 1881-10-07 15:00:00 TS 22.5000 84.3000 main 0 0 _________PO___ -1 22.5000 84.3000 TC 30 22.5000 84.3000 1 1 0
1881277N17085 1881 42 NI BB NOT_NAMED 1881-10-07 18:00:00 TS 22.4695 84.2940 main 0 0 _________OP___ -1 22.5000 84.3000 TC 30 22.4391 84.2880 1 1 186
1881277N17085 1881 42 NI BB NOT_NAMED 1881-10-07 21:00:00 TS 22.4212 84.2852 main 0 0 _________PP___ -1 22.4550 84.2925 TC 30 22.3875 84.2778 1 0 0
1881277N17085 1881 42 NI BB NOT_NAMED 1881-10-08 00:00:00 TS 22.4461 84.2894 main 0 0 _________OP___ -1 22.5000 84.3000 TC 30 22.3922 84.2787 1 2 10
1881277N17085 1881 42 NI BB NOT_NAMED 1881-10-08 03:00:00 TS 22.6163 84.3175 main 0 0 _________PO___ -1 22.7325 84.3351 TC 30 22.5000 84.3000 1 5 8
1881277N17085 1881 42 NI BB NOT_NAMED 1881-10-08 06:00:00 TS 22.9336 84.3687 main 0 0 _________OP___ -1 23.1000 84.4000 TC 30 22.7672 84.3373 1 7 9
1881277N17085 1881 42 NI BB NOT_NAMED 1881-10-08 09:00:00 TS 23.3362 84.4414 main 0 0 _________PP___ -1 23.5350 84.4850 TC 30 23.1374 84.3978 1 9 11
1881277N17085 1881 42 NI BB NOT_NAMED 1881-10-08 12:00:00 TS 23.7820 84.5422 main 0 0 _________OP___ -1 24.0000 84.6000 TC 30 23.5640 84.4843 1 9 13
1881277N17085 1881 42 NI BB NOT_NAMED 1881-10-08 15:00:00 TS 24.2075 84.6675 main 0 0 _________PO___ -1 24.4150 84.7351 TC 30 24.0000 84.6000 1 8 17
1881277N17085 1881 42 NI BB NOT_NAMED 1881-10-08 18:00:00 TS 24.5760 84.8120 main 0 0 _________OP___ -1 24.8000 84.9000 TC 30 24.4079 84.7460 1 8 22
1881277N17085 1881 42 NI BB NOT_NAMED 1881-10-08 21:00:00 TS 24.9357 84.9868 main 0 0 _________PP___ -1 25.1576 85.0923 TC 30 24.7877 84.9165 1 8 25
1881277N17085 1881 42 NI BB NOT_NAMED 1881-10-09 00:00:00 TS 25.2658 85.1692 main 0 0 _________OP___ -1 25.5000 85.3000 TC 30 25.1486 85.1038 1 6 26
1881277N17085 1881 42 NI BB NOT_NAMED 1881-10-09 03:00:00 NR 25.5000 85.3000 main 0 __________O___ -1 TC 25.5000 85.3000 1 5 27

About IBTrACS Database

This database is a web-friendly format of International Best Track Archive for Climate Stewardship (IBTrACS), a global best track data archive curated by NOAA dating back to 1842.

Updated: 2021-10-08